createdAt,value
2022-11-24T00:01:32.750Z,7.51
2022-11-24T00:04:06.601Z,7.38
2022-11-24T00:06:36.811Z,7.51
2022-11-24T00:09:07.711Z,7.56
2022-11-24T00:11:37.440Z,7.47
2022-11-24T00:14:07.584Z,7.38
2022-11-24T00:16:38.525Z,7.26
2022-11-24T00:19:14.584Z,7.44
2022-11-24T00:21:48.670Z,7.45
2022-11-24T00:24:19.248Z,7.55
2022-11-24T00:26:47.920Z,7.57
2022-11-24T00:29:17.577Z,7.51
2022-11-24T00:31:46.705Z,7.56
2022-11-24T00:34:18.119Z,7.55
2022-11-24T00:36:47.523Z,7.51
2022-11-24T00:39:17.313Z,7.56
2022-11-24T00:41:47.344Z,7.67
2022-11-24T00:44:16.065Z,7.67
2022-11-24T00:46:44.819Z,7.43
2022-11-24T00:49:15.992Z,7.54
2022-11-24T00:51:44.704Z,7.44
2022-11-24T00:54:13.405Z,7.50
2022-11-24T00:56:44.509Z,7.48
2022-11-24T00:59:17.049Z,7.39
2022-11-24T01:01:46.379Z,7.59
2022-11-24T01:04:15.071Z,7.53
2022-11-24T01:06:43.968Z,7.34
2022-11-24T01:09:13.707Z,7.41
2022-11-24T01:12:02.444Z,7.25
2022-11-24T01:14:34.155Z,7.51
2022-11-24T01:17:03.091Z,7.51
2022-11-24T01:19:31.873Z,7.44
2022-11-24T01:22:00.559Z,7.32
2022-11-24T01:24:29.338Z,7.56
2022-11-24T01:27:00.281Z,7.29
2022-11-24T01:29:29.286Z,7.54
2022-11-24T01:31:59.359Z,7.43
2022-11-24T01:34:28.193Z,7.12
2022-11-24T01:36:56.876Z,7.47
2022-11-24T01:39:25.575Z,7.37
2022-11-24T01:41:54.836Z,7.51
2022-11-24T01:44:25.404Z,6.27
2022-11-24T01:46:58.767Z,7.39
2022-11-24T01:49:39.417Z,7.31
2022-11-24T01:52:13.053Z,7.34
2022-11-24T01:54:47.222Z,7.34
2022-11-24T01:57:20.590Z,7.45
2022-11-24T01:59:52.837Z,7.48
2022-11-24T02:02:29.677Z,7.51
2022-11-24T02:05:04.949Z,7.58
2022-11-24T02:07:34.335Z,7.62
2022-11-24T02:10:09.391Z,7.51
2022-11-24T02:12:39.792Z,7.48
2022-11-24T02:15:11.865Z,7.81
2022-11-24T02:17:42.987Z,7.60
2022-11-24T02:20:14.564Z,7.52
2022-11-24T02:22:52.611Z,7.53
2022-11-24T02:25:28.404Z,7.37
2022-11-24T02:28:01.026Z,7.42
2022-11-24T02:30:29.917Z,7.49
2022-11-24T02:32:58.923Z,7.72
2022-11-24T02:35:28.335Z,7.72
2022-11-24T02:37:59.252Z,7.51
2022-11-24T02:40:31.112Z,7.60
2022-11-24T02:43:10.554Z,7.58
2022-11-24T02:45:39.269Z,7.49
2022-11-24T02:48:08.739Z,7.61
2022-11-24T02:50:38.329Z,7.44
2022-11-24T02:53:09.431Z,7.60
2022-11-24T02:55:40.202Z,7.54
2022-11-24T02:58:10.442Z,7.44
2022-11-24T03:00:41.603Z,7.33
2022-11-24T03:03:10.516Z,7.31
2022-11-24T03:05:39.485Z,7.32
2022-11-24T03:08:11.258Z,7.35
2022-11-24T03:10:40.509Z,7.44
2022-11-24T03:13:15.498Z,7.46
2022-11-24T03:15:44.258Z,7.50
2022-11-24T03:18:12.973Z,7.42
2022-11-24T03:20:41.922Z,7.45
2022-11-24T03:23:10.564Z,7.47
2022-11-24T03:25:42.295Z,7.36
2022-11-24T03:28:13.091Z,7.31
2022-11-24T03:30:43.214Z,7.36
2022-11-24T03:33:11.924Z,7.37
2022-11-24T03:35:41.463Z,7.61
2022-11-24T03:38:10.310Z,7.61
2022-11-24T03:40:38.978Z,7.58
2022-11-24T03:43:08.120Z,7.34
2022-11-24T03:45:52.387Z,7.41
2022-11-24T03:48:22.879Z,7.25
2022-11-24T03:50:56.515Z,7.06
2022-11-24T03:53:26.956Z,7.33
2022-11-24T03:55:56.468Z,7.31
2022-11-24T03:58:27.407Z,7.23
2022-11-24T04:00:58.609Z,7.32
2022-11-24T04:03:28.813Z,7.44
2022-11-24T04:05:57.932Z,7.42
2022-11-24T04:08:26.730Z,7.51
2022-11-24T04:10:59.578Z,7.39
2022-11-24T04:13:27.764Z,7.47
2022-11-24T04:15:56.882Z,7.39
2022-11-24T04:18:25.645Z,7.45
2022-11-24T04:20:55.825Z,7.39
2022-11-24T04:23:24.622Z,7.39
2022-11-24T04:25:53.255Z,7.50
2022-11-24T04:28:22.162Z,7.50
2022-11-24T04:30:51.109Z,7.42
2022-11-24T04:33:19.805Z,7.48
2022-11-24T04:35:48.609Z,7.84
2022-11-24T04:39:23.849Z,7.81
2022-11-24T04:41:10.728Z,7.54
2022-11-24T04:43:40.879Z,7.50
2022-11-24T04:46:12.934Z,7.60
2022-11-24T04:48:42.993Z,7.57
2022-11-24T04:51:11.917Z,7.66
2022-11-24T04:53:42.461Z,7.69
2022-11-24T04:56:11.511Z,7.46
2022-11-24T04:58:40.141Z,7.33
2022-11-24T05:01:09.531Z,7.28
2022-11-24T05:03:38.195Z,7.19
2022-11-24T05:06:08.883Z,6.99
2022-11-24T05:08:37.898Z,6.90
2022-11-24T05:11:08.805Z,7.04
2022-11-24T05:13:37.683Z,6.86
2022-11-24T05:16:09.852Z,6.90
2022-11-24T05:18:39.044Z,6.95
2022-11-24T05:21:07.852Z,7.08
2022-11-24T05:23:37.113Z,6.99
2022-11-24T05:26:07.857Z,6.94
2022-11-24T05:28:38.254Z,6.95
2022-11-24T05:31:10.039Z,7.03
2022-11-24T05:33:39.199Z,6.71
2022-11-24T05:36:08.976Z,6.86
2022-11-24T05:38:40.252Z,6.93
2022-11-24T05:41:12.843Z,7.00
2022-11-24T05:43:42.307Z,6.76
2022-11-24T05:46:11.086Z,6.89
2022-11-24T05:48:40.113Z,6.79
2022-11-24T05:51:09.512Z,6.98
2022-11-24T05:53:38.761Z,6.96
2022-11-24T05:56:08.360Z,6.96
2022-11-24T05:58:41.414Z,7.18
2022-11-24T06:01:10.153Z,6.92
2022-11-24T06:03:38.858Z,6.90
2022-11-24T06:06:08.321Z,6.97
2022-11-24T06:08:37.453Z,6.92
2022-11-24T06:11:18.565Z,6.83
2022-11-24T06:13:49.650Z,6.95
2022-11-24T06:16:18.708Z,6.94
2022-11-24T06:18:48.951Z,7.13
2022-11-24T06:21:18.736Z,6.87
2022-11-24T06:23:49.853Z,6.83
2022-11-24T06:26:19.464Z,6.85
2022-11-24T06:28:50.614Z,6.89
2022-11-24T06:31:23.069Z,6.92
2022-11-24T06:33:53.313Z,6.83
2022-11-24T06:36:25.678Z,6.62
2022-11-24T06:38:56.410Z,6.79
2022-11-24T06:41:26.414Z,6.81
2022-11-24T06:43:58.424Z,6.77
2022-11-24T06:46:30.681Z,6.80
2022-11-24T06:49:00.918Z,6.86
2022-11-24T06:51:30.833Z,6.95
2022-11-24T06:54:08.409Z,6.97
2022-11-24T06:56:38.368Z,7.02
2022-11-24T06:59:16.754Z,7.03
2022-11-24T07:01:53.298Z,6.99
2022-11-24T07:04:23.338Z,6.99
2022-11-24T07:06:53.538Z,6.74
2022-11-24T07:09:24.223Z,7.01
2022-11-24T07:11:57.259Z,6.99
2022-11-24T07:14:29.069Z,7.05
2022-11-24T07:16:58.960Z,7.30
2022-11-24T07:19:29.211Z,6.92
2022-11-24T07:22:02.255Z,6.84
2022-11-24T07:24:31.709Z,7.08
2022-11-24T07:27:01.701Z,7.17
2022-11-24T07:29:33.751Z,7.08
2022-11-24T07:32:05.811Z,7.14
2022-11-24T07:34:35.611Z,7.13
2022-11-24T07:37:05.227Z,7.08
2022-11-24T07:39:34.949Z,7.05
2022-11-24T07:42:05.274Z,7.29
2022-11-24T07:44:36.123Z,7.18
2022-11-24T07:47:06.239Z,7.21
2022-11-24T07:49:37.247Z,7.29
2022-11-24T07:52:06.421Z,7.20
2022-11-24T07:54:35.404Z,7.13
2022-11-24T07:57:04.359Z,7.14
2022-11-24T07:59:36.572Z,7.17
2022-11-24T08:02:05.286Z,7.02
2022-11-24T08:04:38.135Z,6.97
2022-11-24T08:07:07.570Z,7.02
2022-11-24T08:09:36.304Z,7.04
2022-11-24T08:12:06.537Z,6.99
2022-11-24T08:14:37.738Z,7.36
2022-11-24T08:17:10.396Z,7.12
2022-11-24T08:19:42.722Z,7.13
2022-11-24T08:22:14.672Z,7.08
2022-11-24T08:24:48.035Z,7.05
2022-11-24T08:27:21.288Z,7.05
2022-11-24T08:29:52.954Z,6.92
2022-11-24T08:32:22.869Z,7.30
2022-11-24T08:34:59.481Z,7.24
2022-11-24T08:37:34.117Z,7.19
2022-11-24T08:40:04.127Z,7.17
2022-11-24T08:42:33.776Z,7.17
2022-11-24T08:45:23.042Z,7.33
2022-11-24T08:47:57.925Z,7.37
2022-11-24T08:50:28.157Z,7.03
2022-11-24T08:52:57.724Z,7.25
2022-11-24T08:55:27.218Z,7.43
2022-11-24T08:57:56.231Z,7.43
2022-11-24T09:00:24.968Z,7.54
2022-11-24T09:02:59.665Z,7.60
2022-11-24T09:05:51.325Z,7.59
2022-11-24T09:08:18.059Z,7.54
2022-11-24T09:10:46.787Z,7.60
2022-11-24T09:13:16.321Z,7.68
2022-11-24T09:15:45.252Z,7.80
2022-11-24T09:18:15.641Z,7.86
2022-11-24T09:20:44.642Z,8.11
2022-11-24T09:23:14.727Z,7.95
2022-11-24T09:25:43.564Z,8.02
2022-11-24T09:28:13.233Z,8.09
2022-11-24T09:30:45.099Z,8.25
2022-11-24T09:33:15.617Z,8.32
2022-11-24T09:35:44.560Z,8.29
2022-11-24T09:38:16.330Z,8.36
2022-11-24T09:40:45.090Z,8.38
2022-11-24T09:43:21.168Z,8.42
2022-11-24T09:46:05.465Z,8.48
2022-11-24T09:48:39.936Z,8.46
2022-11-24T09:51:13.361Z,8.71
2022-11-24T09:53:47.919Z,8.80
2022-11-24T09:56:22.109Z,8.82
2022-11-24T09:58:53.193Z,8.92
2022-11-24T10:01:25.835Z,9.05
2022-11-24T10:04:02.606Z,9.11
2022-11-24T10:06:42.055Z,9.18
2022-11-24T10:09:30.499Z,9.18
2022-11-24T10:12:17.338Z,9.44
2022-11-24T10:15:01.668Z,8.88
2022-11-24T10:17:45.530Z,9.58
2022-11-24T10:20:22.970Z,9.69
2022-11-24T10:23:10.552Z,9.81
2022-11-24T10:25:49.588Z,9.88
2022-11-24T10:28:21.350Z,9.81
2022-11-24T10:30:51.007Z,10.01
2022-11-24T10:33:30.326Z,9.95
2022-11-24T10:36:10.118Z,10.03
2022-11-24T10:38:45.317Z,10.05
2022-11-24T10:41:19.737Z,10.22
2022-11-24T10:43:48.467Z,10.24
2022-11-24T10:46:23.038Z,10.27
2022-11-24T10:48:54.775Z,10.49
2022-11-24T10:51:47.800Z,10.39
2022-11-24T10:54:20.674Z,10.48
2022-11-24T10:56:52.606Z,10.60
2022-11-24T10:59:30.329Z,10.62
2022-11-24T11:01:59.731Z,10.59
2022-11-24T11:04:31.055Z,10.73
2022-11-24T11:07:18.763Z,10.80
2022-11-24T11:09:49.097Z,10.85
2022-11-24T11:15:24.811Z,11.06
2022-11-24T11:17:59.895Z,11.10
2022-11-24T11:20:35.412Z,11.26
2022-11-24T11:23:16.975Z,10.96
2022-11-24T11:25:46.222Z,11.27
2022-11-24T11:28:26.485Z,11.43
2022-11-24T11:31:19.841Z,11.19
2022-11-24T11:34:07.281Z,11.51
2022-11-24T11:36:45.055Z,11.45
2022-11-24T11:39:26.243Z,11.43
2022-11-24T11:42:08.346Z,11.60
2022-11-24T11:44:41.511Z,11.76
2022-11-24T11:47:18.874Z,11.73
2022-11-24T11:49:50.773Z,11.82
2022-11-24T11:53:01.692Z,11.79
2022-11-24T11:55:48.169Z,11.80
2022-11-24T11:58:45.788Z,11.89
2022-11-24T12:01:33.101Z,11.88
2022-11-24T12:04:21.366Z,11.95
2022-11-24T12:07:00.938Z,11.95
2022-11-24T12:09:45.151Z,12.00
2022-11-24T12:12:33.688Z,11.98
2022-11-24T12:15:13.454Z,11.85
2022-11-24T12:17:49.824Z,12.18
2022-11-24T12:20:32.525Z,12.25
2022-11-24T12:23:11.557Z,12.07
2022-11-24T12:25:49.045Z,12.09
2022-11-24T12:28:34.473Z,12.30
2022-11-24T12:31:07.797Z,12.23
2022-11-24T12:34:16.824Z,12.18
2022-11-24T12:37:01.441Z,12.19
2022-11-24T12:39:37.328Z,12.35
2022-11-24T12:42:14.039Z,12.21
2022-11-24T12:45:06.114Z,12.34
2022-11-24T12:47:58.941Z,12.24
2022-11-24T12:50:30.603Z,12.16
2022-11-24T12:53:05.899Z,12.09
2022-11-24T12:55:35.052Z,12.07
2022-11-24T12:58:11.686Z,12.04
2022-11-24T13:00:58.925Z,12.13
2022-11-24T13:03:42.641Z,12.00
2022-11-24T13:06:15.521Z,12.11
2022-11-24T13:08:45.225Z,12.04
2022-11-24T13:11:38.048Z,12.12
2022-11-24T13:14:16.825Z,12.12
2022-11-24T13:19:45.021Z,12.21
2022-11-24T13:22:19.768Z,12.25
2022-11-24T13:25:13.459Z,11.96
2022-11-24T13:27:45.245Z,12.12
2022-11-24T13:30:59.498Z,12.02
2022-11-24T13:33:32.920Z,11.25
2022-11-24T13:36:31.040Z,11.90
2022-11-24T13:39:02.788Z,11.98
2022-11-24T13:42:09.479Z,12.02
2022-11-24T13:44:49.586Z,12.05
2022-11-24T13:47:37.577Z,11.84
2022-11-24T13:50:15.629Z,11.95
2022-11-24T13:52:49.190Z,11.97
2022-11-24T13:55:25.808Z,11.85
2022-11-24T13:57:59.555Z,11.53
2022-11-24T14:00:32.065Z,11.59
2022-11-24T14:03:04.872Z,11.69
2022-11-24T14:05:41.485Z,11.45
2022-11-24T14:08:20.462Z,11.36
2022-11-24T14:10:49.922Z,11.34
2022-11-24T14:13:30.154Z,10.97
2022-11-24T14:16:13.879Z,10.38
2022-11-24T14:18:44.290Z,10.81
2022-11-24T14:21:27.158Z,10.70
2022-11-24T14:23:59.904Z,10.66
2022-11-24T14:26:34.192Z,10.90
2022-11-24T14:29:08.356Z,10.72
2022-11-24T14:31:37.592Z,10.75
2022-11-24T14:34:16.144Z,10.59
2022-11-24T14:36:46.575Z,10.39
2022-11-24T14:39:19.409Z,10.55
2022-11-24T14:41:53.515Z,10.48
2022-11-24T14:44:25.243Z,10.58
2022-11-24T14:47:03.557Z,10.19
2022-11-24T14:49:35.498Z,10.30
2022-11-24T14:52:14.125Z,10.17
2022-11-24T14:54:48.957Z,10.21
2022-11-24T14:57:27.094Z,9.97
2022-11-24T15:00:17.006Z,9.93
2022-11-24T15:02:48.532Z,9.73
2022-11-24T15:05:17.855Z,9.61
2022-11-24T15:07:52.955Z,9.73
2022-11-24T15:10:33.577Z,9.88
2022-11-24T15:13:06.636Z,9.59
2022-11-24T15:15:38.180Z,9.24
2022-11-24T15:18:07.950Z,9.80
2022-11-24T15:20:41.771Z,9.86
2022-11-24T15:23:23.488Z,9.53
2022-11-24T15:25:53.334Z,9.87
2022-11-24T15:28:25.712Z,9.97
2022-11-24T15:30:55.616Z,10.00
2022-11-24T15:33:25.058Z,9.76
2022-11-24T15:35:54.174Z,9.46
2022-11-24T15:38:24.371Z,9.40
2022-11-24T15:40:55.980Z,9.25
2022-11-24T15:43:31.935Z,9.62
2022-11-24T15:46:01.647Z,9.27
2022-11-24T15:48:31.143Z,9.15
2022-11-24T15:51:02.578Z,9.33
2022-11-24T15:53:35.663Z,9.10
2022-11-24T15:56:07.280Z,9.21
2022-11-24T15:58:36.043Z,8.90
2022-11-24T16:01:05.479Z,9.00
2022-11-24T16:03:47.112Z,8.93
2022-11-24T16:06:24.688Z,9.01
2022-11-24T16:08:59.234Z,8.75
2022-11-24T16:11:28.247Z,8.97
2022-11-24T16:13:57.166Z,8.89
2022-11-24T16:16:30.652Z,8.65
2022-11-24T16:19:00.266Z,8.76
2022-11-24T16:21:29.508Z,8.71
2022-11-24T16:23:59.629Z,8.70
2022-11-24T16:26:28.738Z,8.53
2022-11-24T16:28:58.169Z,8.35
2022-11-24T16:31:28.927Z,8.59
2022-11-24T16:33:57.546Z,8.55
2022-11-24T16:36:26.793Z,8.39
2022-11-24T16:38:56.027Z,8.37
2022-11-24T16:41:26.390Z,8.43
2022-11-24T16:43:55.101Z,8.64
2022-11-24T16:46:25.404Z,8.37
2022-11-24T16:48:56.046Z,8.46
2022-11-24T16:51:29.899Z,8.49
2022-11-24T16:54:03.673Z,8.36
2022-11-24T16:56:34.356Z,8.08
2022-11-24T16:59:03.580Z,8.47
2022-11-24T17:01:32.828Z,8.25
2022-11-24T17:04:08.206Z,7.92
2022-11-24T17:06:44.716Z,8.44
2022-11-24T17:09:13.694Z,8.46
2022-11-24T17:11:44.088Z,8.45
2022-11-24T17:14:14.791Z,8.49
2022-11-24T17:16:43.548Z,8.49
2022-11-24T17:19:13.007Z,8.56
2022-11-24T17:21:41.742Z,8.51
2022-11-24T17:24:17.617Z,8.61
2022-11-24T17:26:50.458Z,8.28
2022-11-24T17:29:19.253Z,8.22
2022-11-24T17:31:50.474Z,8.54
2022-11-24T17:34:21.692Z,8.49
2022-11-24T17:36:50.843Z,8.31
2022-11-24T17:39:24.514Z,8.42
2022-11-24T17:41:55.084Z,8.32
2022-11-24T17:44:24.356Z,8.31
2022-11-24T17:46:53.475Z,8.32
2022-11-24T17:49:24.642Z,8.31
2022-11-24T17:51:53.291Z,8.45
2022-11-24T17:54:45.540Z,8.49
2022-11-24T17:57:12.191Z,8.40
2022-11-24T17:59:40.898Z,8.26
2022-11-24T18:02:10.955Z,8.60
2022-11-24T18:04:39.773Z,8.42
2022-11-24T18:07:11.403Z,8.31
2022-11-24T18:09:40.290Z,8.27
2022-11-24T18:12:09.476Z,8.19
2022-11-24T18:14:40.026Z,8.27
2022-11-24T18:17:10.279Z,8.38
2022-11-24T18:19:39.056Z,8.23
2022-11-24T18:22:08.414Z,7.23
2022-11-24T18:24:40.524Z,8.18
2022-11-24T18:27:10.362Z,8.14
2022-11-24T18:29:40.571Z,7.98
2022-11-24T18:32:09.568Z,7.93
2022-11-24T18:34:38.265Z,7.98
2022-11-24T18:37:08.737Z,8.15
2022-11-24T18:39:37.454Z,7.96
2022-11-24T18:42:07.456Z,8.08
2022-11-24T18:44:36.582Z,8.05
2022-11-24T18:47:07.988Z,8.19
2022-11-24T18:49:36.611Z,8.04
2022-11-24T18:52:05.869Z,8.01
2022-11-24T18:54:35.478Z,7.91
2022-11-24T18:57:05.371Z,8.03
2022-11-24T18:59:36.969Z,7.96
2022-11-24T19:02:12.339Z,7.76
2022-11-24T19:04:41.234Z,7.94
2022-11-24T19:07:10.466Z,7.89
2022-11-24T19:09:39.203Z,7.73
2022-11-24T19:12:10.393Z,7.54
2022-11-24T19:14:41.665Z,7.80
2022-11-24T19:17:11.925Z,7.81
2022-11-24T19:19:40.676Z,7.80
2022-11-24T19:22:10.057Z,7.91
2022-11-24T19:24:41.625Z,7.89
2022-11-24T19:27:10.779Z,7.95
2022-11-24T19:29:43.053Z,7.84
2022-11-24T19:32:16.948Z,7.80
2022-11-24T19:34:46.340Z,7.82
2022-11-24T19:37:15.286Z,7.87
2022-11-24T19:39:43.956Z,7.70
2022-11-24T19:42:13.458Z,7.59
2022-11-24T19:44:42.193Z,7.60
2022-11-24T19:47:13.087Z,7.60
2022-11-24T19:49:43.199Z,7.30
2022-11-24T19:52:12.445Z,7.52
2022-11-24T19:54:41.371Z,7.64
2022-11-24T19:57:10.485Z,7.51
2022-11-24T19:59:39.450Z,7.48
2022-11-24T20:02:08.427Z,7.57
2022-11-24T20:04:39.827Z,7.59
2022-11-24T20:07:11.137Z,7.76
2022-11-24T20:09:39.924Z,7.79
2022-11-24T20:12:09.921Z,7.78
2022-11-24T20:14:38.817Z,7.95
2022-11-24T20:17:07.950Z,7.92
2022-11-24T20:19:36.647Z,7.83
2022-11-24T20:22:06.405Z,8.00
2022-11-24T20:24:37.154Z,7.82
2022-11-24T20:27:06.471Z,7.87
2022-11-24T20:29:35.123Z,7.71
2022-11-24T20:32:03.834Z,7.70
2022-11-24T20:34:33.051Z,7.65
2022-11-24T20:37:03.507Z,7.71
2022-11-24T20:39:36.636Z,7.68
2022-11-24T20:42:05.930Z,7.75
2022-11-24T20:44:37.736Z,7.69
2022-11-24T20:47:09.470Z,7.74
2022-11-24T20:49:40.410Z,7.73
2022-11-24T20:52:09.129Z,7.64
2022-11-24T20:54:39.920Z,7.82
2022-11-24T20:57:09.107Z,6.81
2022-11-24T20:59:39.740Z,7.77
2022-11-24T21:02:12.556Z,7.51
2022-11-24T21:04:41.540Z,7.48
2022-11-24T21:07:13.511Z,7.73
2022-11-24T21:09:43.817Z,7.51
2022-11-24T21:12:13.353Z,7.54
2022-11-24T21:14:42.657Z,7.41
2022-11-24T21:17:12.552Z,7.64
2022-11-24T21:19:42.045Z,7.65
2022-11-24T21:22:11.427Z,7.46
2022-11-24T21:24:40.539Z,7.46
2022-11-24T21:27:10.822Z,7.74
2022-11-24T21:29:42.198Z,7.58
2022-11-24T21:32:11.170Z,7.52
2022-11-24T21:34:40.606Z,7.78
2022-11-24T21:37:09.507Z,7.06
2022-11-24T21:39:38.284Z,7.58
2022-11-24T21:42:07.575Z,7.51
2022-11-24T21:44:37.692Z,7.66
2022-11-24T21:47:06.899Z,7.85
2022-11-24T21:49:35.878Z,7.61
2022-11-24T21:52:04.805Z,7.56
2022-11-24T21:54:33.645Z,7.72
2022-11-24T21:57:02.684Z,7.75
2022-11-24T21:59:31.567Z,7.62
2022-11-24T22:02:01.996Z,7.67
2022-11-24T22:04:30.748Z,7.76
2022-11-24T22:07:02.506Z,7.86
2022-11-24T22:09:33.926Z,7.79
2022-11-24T22:12:03.367Z,7.93
2022-11-24T22:14:37.461Z,7.83
2022-11-24T22:17:10.718Z,7.79
2022-11-24T22:19:39.381Z,7.92
2022-11-24T22:22:08.574Z,7.86
2022-11-24T22:24:37.645Z,7.70
2022-11-24T22:27:06.480Z,8.01
2022-11-24T22:29:35.142Z,8.07
2022-11-24T22:32:08.202Z,7.87
2022-11-24T22:34:38.979Z,7.94
2022-11-24T22:37:09.318Z,7.98
2022-11-24T22:39:38.799Z,7.04
2022-11-24T22:42:08.028Z,7.82
2022-11-24T22:44:38.830Z,7.84
2022-11-24T22:47:08.338Z,7.93
2022-11-24T22:49:39.477Z,7.78
2022-11-24T22:52:09.332Z,7.89
2022-11-24T22:54:38.986Z,7.89
2022-11-24T22:57:09.483Z,7.92
2022-11-24T22:59:38.663Z,7.97
2022-11-24T23:02:08.017Z,8.20
2022-11-24T23:04:38.805Z,7.32
2022-11-24T23:07:08.242Z,7.89
2022-11-24T23:09:37.544Z,8.00
2022-11-24T23:12:07.400Z,7.96
2022-11-24T23:14:36.670Z,7.83
2022-11-24T23:17:06.993Z,7.91
2022-11-24T23:19:36.345Z,7.84
2022-11-24T23:22:07.806Z,7.87
2022-11-24T23:24:40.449Z,7.83
2022-11-24T23:27:10.736Z,7.97
2022-11-24T23:29:40.828Z,7.85
2022-11-24T23:32:11.891Z,7.90
2022-11-24T23:34:46.040Z,7.93
2022-11-24T23:37:17.488Z,7.98
2022-11-24T23:39:48.415Z,8.14
2022-11-24T23:42:18.447Z,7.97
2022-11-24T23:44:50.867Z,7.89
2022-11-24T23:47:20.635Z,7.99
2022-11-24T23:49:51.910Z,7.89
2022-11-24T23:52:22.965Z,7.85
2022-11-24T23:54:52.481Z,7.91
2022-11-24T23:57:24.205Z,7.72
2022-11-24T23:59:53.399Z,7.68
